Time;durP1;ratioP1;P1;durP2;ratioP2;P2;SDS_P1;SDS_P2;PMS_P1;PMS_P2;Temp;Humidity;BMP_temperature;BMP_pressure;BME280_temperature;BME280_humidity;BME280_pressure;Samples;Min_cycle;Max_cycle;Signal;HPM_P1;HPM_P2
2022/12/24 00:02:11;;;;;;;34.47;17.67;;;;;;;5.78;81.54;97382.50;5091584;28;20031;-70
2022/12/24 00:04:37;;;;;;;29.08;15.82;;;;;;;5.76;81.98;97381.97;5091716;28;20077;-69
2022/12/24 00:07:03;;;;;;;24.50;14.05;;;;;;;5.76;81.76;97381.97;5092590;28;20051;-68
2022/12/24 00:09:28;;;;;;;29.25;15.38;;;;;;;5.76;81.87;97366.44;5092470;28;20024;-69
2022/12/24 00:11:53;;;;;;;27.77;15.27;;;;;;;5.77;81.68;97365.34;5092419;28;20107;-70
2022/12/24 00:14:19;;;;;;;30.05;15.80;;;;;;;5.74;81.48;97374.09;5092648;28;20035;-67
2022/12/24 00:16:44;;;;;;;21.88;12.07;;;;;;;5.75;81.79;97372.97;5093159;28;20464;-69
2022/12/24 00:19:09;;;;;;;21.90;12.77;;;;;;;5.77;81.76;97368.06;5092821;28;20498;-67
2022/12/24 00:21:35;;;;;;;19.30;12.32;;;;;;;5.80;81.58;97374.84;5091776;28;20044;-69
2022/12/24 00:24:03;;;;;;;21.90;12.23;;;;;;;5.79;81.87;97363.16;5093345;28;20035;-68
2022/12/24 00:26:28;;;;;;;20.65;13.00;;;;;;;5.82;81.82;97367.22;5093280;28;20024;-68
2022/12/24 00:28:54;;;;;;;20.83;12.48;;;;;;;5.82;81.76;97359.84;5092929;28;20035;-68
2022/12/24 00:31:19;;;;;;;21.77;12.15;;;;;;;5.82;81.60;97359.84;5093304;28;20027;-69
2022/12/24 00:33:46;;;;;;;20.30;11.98;;;;;;;5.82;81.85;97357.13;5093125;28;20430;-68
2022/12/24 00:36:12;;;;;;;23.55;12.43;;;;;;;5.82;81.85;97351.69;5091904;28;20024;-68
2022/12/24 00:38:37;;;;;;;21.63;11.25;;;;;;;5.81;82.07;97350.06;5091179;28;20185;-68
2022/12/24 00:41:05;;;;;;;23.23;13.43;;;;;;;5.80;81.51;97334.84;5091231;28;20036;-68
2022/12/24 00:43:31;;;;;;;19.70;10.90;;;;;;;5.79;81.70;97344.09;5091871;28;20016;-67
2022/12/24 00:45:58;;;;;;;20.08;10.90;;;;;;;5.80;81.90;97334.84;5091756;28;20062;-68
2022/12/24 00:48:23;;;;;;;20.33;11.32;;;;;;;5.85;81.88;97354.91;5088275;28;20024;-68
2022/12/24 00:50:49;;;;;;;19.30;10.65;;;;;;;5.88;82.02;97359.78;5090131;28;20027;-68
2022/12/24 00:53:15;;;;;;;18.13;9.75;;;;;;;5.90;81.63;97361.13;5091441;28;20012;-68
2022/12/24 00:55:41;;;;;;;17.85;9.25;;;;;;;5.93;81.77;97374.13;5091021;28;20020;-68
2022/12/24 00:58:06;;;;;;;16.30;9.35;;;;;;;5.92;81.94;97377.94;5091292;28;20043;-68
2022/12/24 01:00:31;;;;;;;14.43;8.88;;;;;;;5.96;82.01;97378.97;5089034;28;20119;-68
2022/12/24 01:02:57;;;;;;;15.50;9.60;;;;;;;5.99;81.85;97374.88;5090424;28;20453;-68
2022/12/24 01:05:22;;;;;;;16.67;10.00;;;;;;;5.99;81.76;97383.03;5091153;28;20024;-68
2022/12/24 01:07:48;;;;;;;15.02;10.25;;;;;;;5.99;82.04;97380.31;5091041;28;20027;-68
2022/12/24 01:10:17;;;;;;;16.83;11.25;;;;;;;6.00;81.90;97381.13;5090721;28;20024;-68
2022/12/24 01:12:43;;;;;;;16.15;11.00;;;;;;;6.00;81.71;97373.81;5073284;28;20023;-69
2022/12/24 01:15:10;;;;;;;15.38;9.40;;;;;;;6.03;81.72;97380.56;5090574;28;20028;-68
2022/12/24 01:17:35;;;;;;;18.08;10.73;;;;;;;6.05;81.96;97378.34;5091253;28;20102;-68
2022/12/24 01:20:02;;;;;;;15.88;10.40;;;;;;;6.05;82.39;97387.34;5090164;28;20111;-68
2022/12/24 01:22:27;;;;;;;17.35;10.45;;;;;;;6.07;81.81;97381.59;5072553;28;20040;-68
2022/12/24 01:24:53;;;;;;;16.00;10.85;;;;;;;6.06;81.84;97372.63;5091005;28;20020;-68
2022/12/24 01:27:18;;;;;;;18.42;12.18;;;;;;;6.08;82.01;97367.72;5090975;28;20038;-67
2022/12/24 01:29:43;;;;;;;20.15;12.82;;;;;;;6.08;81.96;97375.03;5090210;28;20036;-68
2022/12/24 01:32:09;;;;;;;20.08;12.80;;;;;;;6.08;81.90;97364.16;5090820;28;20040;-68
2022/12/24 01:34:35;;;;;;;19.05;11.80;;;;;;;6.08;81.95;97366.88;5090643;28;20099;-68
2022/12/24 01:37:00;;;;;;;18.58;13.30;;;;;;;6.10;82.29;97360.06;5072694;28;20150;-68
2022/12/24 01:39:26;;;;;;;16.50;9.57;;;;;;;6.11;81.82;97358.13;5090871;28;20107;-69
2022/12/24 01:44:40;;;;;;;15.98;9.40;;;;;;;6.10;81.67;97340.19;5089616;28;20031;-68
2022/12/24 01:47:27;;;;;;;16.27;9.88;;;;;;;6.08;81.79;97339.66;5088268;28;20038;-68
2022/12/24 01:49:58;;;;;;;11.65;8.13;;;;;;;6.09;81.83;97333.94;5090230;28;20499;-68
2022/12/24 01:52:28;;;;;;;11.55;7.57;;;;;;;6.11;81.98;97339.88;5090292;28;20106;-69
2022/12/24 01:55:12;;;;;;;14.60;10.15;;;;;;;6.14;81.92;97351.28;5090650;28;20077;-68
2022/12/24 01:57:41;;;;;;;15.25;9.50;;;;;;;6.18;82.00;97357.75;5089676;28;20058;-68
2022/12/24 02:00:12;;;;;;;13.55;9.50;;;;;;;6.20;82.07;97347.38;5087855;28;20024;-69
2022/12/24 02:02:40;;;;;;;13.23;8.55;;;;;;;6.20;81.87;97350.09;5090447;28;20426;-69
2022/12/24 02:05:13;;;;;;;15.55;9.77;;;;;;;6.21;82.20;97343.56;5087620;28;20491;-69
2022/12/24 02:07:39;;;;;;;12.27;9.52;;;;;;;6.22;81.76;97348.72;5089708;28;20104;-68
2022/12/24 02:10:08;;;;;;;12.13;8.55;;;;;;;6.22;82.16;97340.56;5069227;28;20089;-69
2022/12/24 02:12:36;;;;;;;12.80;8.65;;;;;;;6.22;81.98;97343.28;5089986;28;20023;-68
2022/12/24 02:15:04;;;;;;;12.75;8.85;;;;;;;6.22;82.01;97340.56;5090067;28;20027;-68
2022/12/24 02:17:53;;;;;;;13.73;9.43;;;;;;;6.19;81.94;97345.75;5090357;28;20105;-69
2022/12/24 02:20:47;;;;;;;13.90;9.35;;;;;;;6.16;81.67;97339.00;5088985;28;20503;-69
2022/12/24 02:23:37;;;;;;;12.93;8.20;;;;;;;6.14;81.88;97349.38;5088833;28;20032;-68
2022/12/24 02:26:08;;;;;;;18.77;10.15;;;;;;;6.13;81.82;97353.19;5089958;28;20012;-68
2022/12/24 02:28:55;;;;;;;15.60;9.27;;;;;;;6.09;81.97;97335.84;5090239;28;20399;-69
2022/12/24 02:31:32;;;;;;;18.33;10.32;;;;;;;6.05;82.21;97351.97;5088937;28;20059;-68
2022/12/24 02:34:06;;;;;;;25.90;12.95;;;;;;;6.01;82.05;97361.81;5090270;28;20020;-69
2022/12/24 02:36:37;;;;;;;13.52;9.38;;;;;;;5.98;81.83;97359.66;5089590;28;20028;-68
2022/12/24 02:39:16;;;;;;;16.73;10.25;;;;;;;5.96;82.03;97353.69;5089815;28;20102;-69
2022/12/24 02:42:05;;;;;;;15.02;9.55;;;;;;;5.93;82.05;97338.72;5088191;28;20040;-68
2022/12/24 02:44:45;;;;;;;14.75;9.30;;;;;;;5.90;82.24;97349.41;5071598;28;20384;-69
2022/12/24 02:47:13;;;;;;;15.10;10.80;;;;;;;5.86;82.47;97362.81;5091003;28;20047;-69
2022/12/24 02:49:44;;;;;;;18.70;11.18;;;;;;;5.81;82.70;97360.94;5090040;28;20024;-69
2022/12/24 02:52:35;;;;;;;19.38;11.82;;;;;;;5.77;82.73;97364.53;5090075;28;20072;-69
2022/12/24 02:55:49;;;;;;;17.88;10.95;;;;;;;5.74;82.75;97370.56;5090539;28;20036;-69
2022/12/24 02:58:52;;;;;;;22.70;13.88;;;;;;;5.71;82.66;97376.59;5087026;28;20028;-69
2022/12/24 03:01:37;;;;;;;19.63;13.75;;;;;;;5.68;82.84;97374.44;5088792;28;20105;-70
2022/12/24 03:04:41;;;;;;;20.17;12.13;;;;;;;5.61;82.58;97386.47;5089230;28;20016;-69
2022/12/24 03:08:01;;;;;;;19.23;11.88;;;;;;;5.56;82.39;97380.31;5089881;28;20077;-69
2022/12/24 03:11:16;;;;;;;20.05;12.90;;;;;;;5.52;82.62;97382.78;4987544;28;20062;-69
2022/12/24 03:13:42;;;;;;;19.20;12.98;;;;;;;5.47;82.91;97382.88;5007503;28;20121;-69
2022/12/24 03:16:12;;;;;;;18.40;13.68;;;;;;;5.43;83.12;97393.50;5073364;28;20109;-70
2022/12/24 03:18:41;;;;;;;20.55;14.07;;;;;;;5.40;83.34;97394.06;5093269;28;20016;-69
2022/12/24 03:21:15;;;;;;;18.45;11.68;;;;;;;5.36;83.09;97390.31;5093795;28;20052;-69
2022/12/24 03:23:40;;;;;;;18.38;13.70;;;;;;;5.35;83.16;97399.56;5094369;28;20469;-69
2022/12/24 03:26:09;;;;;;;18.55;12.85;;;;;;;5.33;83.36;97399.84;5094652;28;20031;-69
2022/12/24 03:28:38;;;;;;;16.77;11.57;;;;;;;5.33;83.32;97394.41;5093949;28;20467;-70
2022/12/24 03:31:04;;;;;;;14.32;9.50;;;;;;;5.35;83.68;97402.28;5094196;28;20024;-70
2022/12/24 03:33:30;;;;;;;17.35;10.82;;;;;;;5.34;82.87;97409.63;5094038;28;20024;-69
2022/12/24 03:35:56;;;;;;;13.85;8.98;;;;;;;5.35;83.46;97413.97;5094652;28;20404;-69
2022/12/24 03:38:21;;;;;;;21.50;13.45;;;;;;;5.34;83.43;97409.63;5094368;28;20097;-70
2022/12/24 03:40:47;;;;;;;15.57;9.88;;;;;;;5.31;83.78;97412.94;5093499;28;20100;-68
2022/12/24 03:43:12;;;;;;;16.52;10.07;;;;;;;5.31;83.70;97415.66;5094095;28;20127;-69
2022/12/24 03:45:38;;;;;;;12.70;8.43;;;;;;;5.33;83.84;97423.50;5094305;28;20024;-70
2022/12/24 03:48:03;;;;;;;13.52;9.57;;;;;;;5.33;83.55;97426.22;5094281;28;20035;-69
2022/12/24 03:50:29;;;;;;;14.80;10.15;;;;;;;5.33;83.31;97418.88;5093470;28;20388;-69
2022/12/24 03:52:54;;;;;;;18.30;12.55;;;;;;;5.36;83.96;97431.91;5093630;28;20116;-69
2022/12/24 03:55:21;;;;;;;15.85;10.70;;;;;;;5.39;83.72;97424.28;5094169;28;20396;-70
2022/12/24 03:57:46;;;;;;;13.93;9.45;;;;;;;5.41;83.94;97428.31;5075952;28;20031;-69
2022/12/24 04:00:12;;;;;;;12.02;8.75;;;;;;;5.46;83.77;97430.19;5093553;28;20072;-70
2022/12/24 04:02:37;;;;;;;12.70;8.88;;;;;;;5.49;83.64;97413.31;5093908;28;20028;-69
2022/12/24 04:05:03;;;;;;;13.10;9.45;;;;;;;5.54;83.62;97424.09;5093752;28;20466;-69
2022/12/24 04:07:30;;;;;;;15.88;11.75;;;;;;;5.57;83.57;97423.53;5093734;28;20089;-69
2022/12/24 04:09:55;;;;;;;14.00;9.68;;;;;;;5.60;83.93;97430.31;5093875;28;20028;-68
2022/12/24 04:12:21;;;;;;;16.08;11.20;;;;;;;5.62;83.93;97436.28;5093633;28;20047;-69
2022/12/24 04:14:46;;;;;;;15.90;9.65;;;;;;;5.66;83.92;97434.59;5093472;28;20028;-69
2022/12/24 04:17:11;;;;;;;14.07;8.68;;;;;;;5.66;83.64;97435.41;5093594;28;20020;-69
2022/12/24 04:19:37;;;;;;;15.80;9.82;;;;;;;5.69;83.81;97430.47;5093189;28;20093;-68
2022/12/24 04:22:02;;;;;;;12.05;8.50;;;;;;;5.70;83.81;97429.38;5093442;28;20051;-69
2022/12/24 04:24:28;;;;;;;11.00;8.00;;;;;;;5.70;84.16;97423.94;5093382;28;20024;-69
2022/12/24 04:26:53;;;;;;;12.35;8.73;;;;;;;5.70;83.82;97422.03;5093689;28;20456;-68
2022/12/24 04:29:18;;;;;;;10.80;7.88;;;;;;;5.70;84.24;97432.94;5092373;28;20081;-69
2022/12/24 04:31:44;;;;;;;10.07;7.45;;;;;;;5.70;84.04;97429.38;5074864;28;20028;-68
2022/12/24 04:34:09;;;;;;;12.80;8.98;;;;;;;5.71;83.71;97431.00;5093122;28;20491;-69
2022/12/24 04:36:34;;;;;;;13.45;8.43;;;;;;;5.70;83.95;97432.94;5093303;28;20024;-68
2022/12/24 04:39:00;;;;;;;11.55;8.05;;;;;;;5.72;84.14;97435.34;5092985;28;20141;-69
2022/12/24 04:41:25;;;;;;;10.98;7.65;;;;;;;5.73;83.93;97442.41;5092028;28;20056;-69
2022/12/24 04:43:52;;;;;;;10.20;7.57;;;;;;;5.75;83.96;97441.00;5092151;28;20491;-68
2022/12/24 04:46:20;;;;;;;10.32;7.65;;;;;;;5.77;84.36;97436.09;5092431;28;20460;-68
2022/12/24 04:48:47;;;;;;;11.73;7.90;;;;;;;5.81;84.03;97439.06;5092934;28;20024;-69
2022/12/24 04:51:14;;;;;;;10.27;7.82;;;;;;;5.84;84.40;97434.94;5092526;28;20030;-68
2022/12/24 04:53:40;;;;;;;9.95;7.30;;;;;;;5.85;84.28;97437.38;5092628;28;20032;-69
2022/12/24 04:56:10;;;;;;;9.60;7.15;;;;;;;5.87;84.24;97440.63;5092994;28;20027;-69
2022/12/24 04:58:35;;;;;;;10.73;7.90;;;;;;;5.90;84.25;97442.75;5092954;28;20653;-69
2022/12/24 05:01:05;;;;;;;11.13;7.65;;;;;;;5.93;84.39;97449.53;5092447;28;20107;-69
2022/12/24 05:03:31;;;;;;;10.27;7.90;;;;;;;5.97;84.36;97451.34;5092561;28;20020;-69
2022/12/24 05:06:05;;;;;;;10.82;7.82;;;;;;;6.01;84.23;97456.25;5093150;28;20027;-68
2022/12/24 05:08:30;;;;;;;10.23;7.32;;;;;;;6.04;84.77;97455.66;5092955;28;20032;-69
2022/12/24 05:10:57;;;;;;;10.23;7.95;;;;;;;6.06;84.46;97465.19;5092215;28;20022;-69
2022/12/24 05:13:23;;;;;;;10.25;6.85;;;;;;;6.12;84.58;97455.03;5092754;28;20069;-68
2022/12/24 05:15:49;;;;;;;9.63;7.55;;;;;;;6.15;84.53;97456.34;5092363;28;20438;-69
2022/12/24 05:18:14;;;;;;;11.60;8.65;;;;;;;6.18;85.04;97461.22;5092233;28;20083;-69
2022/12/24 05:20:40;;;;;;;11.60;8.85;;;;;;;6.19;84.32;97452.75;5091735;28;20085;-68
2022/12/24 05:28:34;;;;;;;12.93;8.63;;;;;;;6.20;84.37;97448.13;5088843;28;20039;-69
2022/12/24 05:30:59;;;;;;;15.90;12.02;;;;;;;6.19;84.37;97451.94;5091843;28;20024;-69
2022/12/24 05:33:25;;;;;;;13.50;9.73;;;;;;;6.18;84.47;97459.31;5092185;28;20456;-69
2022/12/24 05:35:51;;;;;;;12.55;9.93;;;;;;;6.17;84.40;97454.97;5091931;28;20028;-68
2022/12/24 05:38:17;;;;;;;14.52;10.68;;;;;;;6.17;84.12;97454.97;5091934;28;20032;-69
2022/12/24 05:40:42;;;;;;;14.27;11.20;;;;;;;6.17;84.34;97463.13;5091826;28;20380;-69
2022/12/24 05:43:08;;;;;;;13.02;9.77;;;;;;;6.19;84.14;97466.38;5092046;28;20017;-69
2022/12/24 05:45:33;;;;;;;10.70;8.52;;;;;;;6.19;84.07;97471.00;5073675;28;20031;-68
2022/12/24 05:47:59;;;;;;;19.50;11.25;;;;;;;6.21;84.21;97475.06;5091975;28;20027;-69
2022/12/24 05:50:24;;;;;;;13.55;9.55;;;;;;;6.21;84.02;97475.06;5091661;28;20060;-69
2022/12/24 05:52:50;;;;;;;12.57;9.75;;;;;;;6.25;84.21;97470.66;5091893;28;20081;-69
2022/12/24 05:55:15;;;;;;;16.02;12.75;;;;;;;6.25;83.97;97469.84;5091654;28;20020;-68
2022/12/24 05:57:41;;;;;;;13.43;10.27;;;;;;;6.28;84.26;97471.97;5091692;28;20023;-69
2022/12/24 06:00:07;;;;;;;15.23;12.48;;;;;;;6.29;84.13;97487.22;5091341;28;20103;-68
2022/12/24 06:02:32;;;;;;;14.15;12.38;;;;;;;6.31;84.30;97481.50;5091963;28;20028;-68
2022/12/24 06:04:57;;;;;;;14.63;12.20;;;;;;;6.32;84.08;97485.81;5091712;28;20145;-69
2022/12/24 06:07:23;;;;;;;14.50;10.27;;;;;;;6.33;84.25;97490.16;5092127;28;20024;-69
2022/12/24 06:09:48;;;;;;;14.98;10.18;;;;;;;6.33;84.27;97493.69;5091711;28;20395;-69
2022/12/24 06:12:13;;;;;;;24.38;13.32;;;;;;;6.35;84.18;97496.94;5092002;28;20107;-68
2022/12/24 06:14:39;;;;;;;17.25;11.60;;;;;;;6.36;84.19;97500.47;5091857;28;20035;-68
2022/12/24 06:17:04;;;;;;;15.23;11.25;;;;;;;6.36;83.89;97506.75;5092077;28;20030;-69
2022/12/24 06:19:29;;;;;;;17.15;11.52;;;;;;;6.37;84.30;97512.97;5091138;28;20028;-69
2022/12/24 06:21:55;;;;;;;15.63;11.07;;;;;;;6.36;84.11;97509.47;5091383;28;20119;-69
2022/12/24 06:24:20;;;;;;;16.38;12.32;;;;;;;6.37;83.97;97507.53;5091980;28;20453;-68
2022/12/24 06:26:45;;;;;;;17.80;11.35;;;;;;;6.37;83.99;97519.25;5091120;28;20028;-68
2022/12/24 06:29:11;;;;;;;16.25;11.77;;;;;;;6.38;84.16;97520.03;5091830;28;20099;-70
2022/12/24 06:31:36;;;;;;;19.02;12.63;;;;;;;6.38;83.86;97522.78;5091326;28;20067;-69
2022/12/24 06:34:02;;;;;;;16.15;10.98;;;;;;;6.38;83.75;97525.50;5091780;28;20027;-69
2022/12/24 06:36:27;;;;;;;23.40;17.30;;;;;;;6.37;83.74;97529.31;5091250;28;20024;-68
2022/12/24 06:38:53;;;;;;;19.83;13.20;;;;;;;6.36;84.08;97530.41;5090826;28;20081;-68
2022/12/24 06:41:19;;;;;;;25.40;16.52;;;;;;;6.35;83.90;97531.53;5090377;28;20464;-69
2022/12/24 06:43:47;;;;;;;31.45;16.88;;;;;;;6.36;83.93;97550.31;5090777;28;20036;-69
2022/12/24 06:46:13;;;;;;;23.48;13.95;;;;;;;6.38;83.93;97544.56;5090410;28;20093;-68
2022/12/24 06:48:39;;;;;;;19.80;12.60;;;;;;;6.37;83.89;97540.22;5091603;28;20028;-69
2022/12/24 06:51:04;;;;;;;20.05;12.38;;;;;;;6.35;83.86;97542.41;5090905;28;20105;-68
2022/12/24 06:53:31;;;;;;;18.08;11.45;;;;;;;6.33;83.83;97545.44;5093981;28;20081;-69
2022/12/24 06:56:08;;;;;;;17.02;11.25;;;;;;;6.32;83.40;97553.88;5095446;28;20440;-68
2022/12/24 06:58:34;;;;;;;19.05;12.25;;;;;;;6.33;83.78;97548.16;5095377;28;20020;-69
2022/12/24 07:01:05;;;;;;;19.63;12.25;;;;;;;6.33;84.09;97560.97;5094623;28;20032;-69
2022/12/24 07:03:31;;;;;;;19.00;12.02;;;;;;;6.33;83.84;97563.69;5095307;28;20499;-68
2022/12/24 07:05:57;;;;;;;20.50;12.85;;;;;;;6.33;83.98;97561.78;5094734;28;20016;-68
2022/12/24 07:08:22;;;;;;;20.15;12.98;;;;;;;6.36;83.94;97558.47;5095240;28;20020;-68
2022/12/24 07:10:49;;;;;;;22.02;13.55;;;;;;;6.37;84.12;97557.38;5094372;28;20031;-69
2022/12/24 07:13:14;;;;;;;19.98;12.75;;;;;;;6.38;83.84;97560.91;5095300;28;20023;-69
2022/12/24 07:15:40;;;;;;;20.58;13.18;;;;;;;6.39;84.01;97557.06;5095033;28;20157;-68
2022/12/24 07:18:05;;;;;;;23.17;14.48;;;;;;;6.38;83.78;97561.72;5094940;28;20430;-69
2022/12/24 07:20:30;;;;;;;22.70;16.15;;;;;;;6.38;84.04;97575.34;5094270;28;20036;-68
2022/12/24 07:22:56;;;;;;;22.85;15.73;;;;;;;6.38;83.88;97583.50;5094793;28;20040;-67
2022/12/24 07:25:21;;;;;;;22.20;14.13;;;;;;;6.39;84.08;97585.13;5094175;28;20609;-69
2022/12/24 07:27:47;;;;;;;25.30;15.82;;;;;;;6.39;84.28;97582.41;5094834;28;20377;-68
2022/12/24 07:30:12;;;;;;;23.98;16.80;;;;;;;6.41;83.68;97579.38;5094440;28;20024;-68
2022/12/24 07:32:38;;;;;;;18.95;12.55;;;;;;;6.41;83.93;97590.28;5094766;28;20480;-68
2022/12/24 07:35:03;;;;;;;21.98;13.68;;;;;;;6.40;83.79;97583.22;5094669;28;20028;-69
2022/12/24 07:37:29;;;;;;;21.75;12.93;;;;;;;6.40;83.73;97591.38;5094248;28;20027;-69
2022/12/24 07:39:54;;;;;;;22.73;13.93;;;;;;;6.41;83.82;97590.28;5093019;28;20035;-68
2022/12/24 07:42:20;;;;;;;29.35;17.92;;;;;;;6.44;83.85;97595.16;5093578;28;20025;-68
2022/12/24 07:44:46;;;;;;;26.88;17.00;;;;;;;6.45;83.85;97602.22;5094071;28;20091;-69
2022/12/24 07:47:12;;;;;;;21.83;15.00;;;;;;;6.45;83.86;97607.66;5093283;28;20073;-69
2022/12/24 07:49:37;;;;;;;25.40;16.08;;;;;;;6.44;83.78;97606.03;5093903;28;20024;-69
2022/12/24 07:52:03;;;;;;;26.60;18.85;;;;;;;6.45;83.40;97617.78;5093995;28;20090;-68
2022/12/24 07:54:28;;;;;;;31.42;23.77;;;;;;;6.44;83.73;97603.31;5094083;28;20028;-68
2022/12/24 07:56:54;;;;;;;30.73;23.58;;;;;;;6.44;83.64;97606.03;5093671;28;20032;-68
2022/12/24 07:59:20;;;;;;;27.77;21.52;;;;;;;6.46;83.61;97611.22;5094044;28;20048;-69
2022/12/24 08:01:45;;;;;;;24.08;16.88;;;;;;;6.47;83.75;97610.13;5093263;28;20357;-68
2022/12/24 08:04:10;;;;;;;29.90;18.15;;;;;;;6.48;83.56;97611.75;5094024;28;20049;-67
2022/12/24 08:06:36;;;;;;;28.73;15.45;;;;;;;6.46;83.82;97606.56;5093465;28;20079;-67
2022/12/24 08:09:02;;;;;;;22.45;15.70;;;;;;;6.46;83.83;97612.00;5094063;28;20066;-67
2022/12/24 08:11:28;;;;;;;25.13;16.90;;;;;;;6.51;83.56;97616.63;5093187;28;20443;-67
2022/12/24 08:13:53;;;;;;;24.40;15.05;;;;;;;6.56;83.50;97619.25;5093910;28;20059;-66
2022/12/24 08:16:18;;;;;;;22.13;14.13;;;;;;;6.60;83.67;97620.28;5092255;28;20093;-67
2022/12/24 08:18:44;;;;;;;24.75;13.95;;;;;;;6.67;83.81;97620.75;5091565;28;20460;-67
2022/12/24 08:21:09;;;;;;;27.58;15.00;;;;;;;6.73;83.90;97621.50;5091426;28;20052;-68
2022/12/24 08:23:35;;;;;;;24.15;15.05;;;;;;;6.79;83.79;97625.00;5091798;28;20438;-67
2022/12/24 08:26:01;;;;;;;28.30;15.50;;;;;;;6.83;83.82;97632.28;5074500;28;20028;-66
2022/12/24 08:28:26;;;;;;;20.73;12.27;;;;;;;6.86;83.71;97625.44;5092231;28;20027;-67
2022/12/24 08:30:52;;;;;;;20.85;11.43;;;;;;;6.88;83.70;97639.59;5091527;28;20024;-67
2022/12/24 08:33:17;;;;;;;16.83;9.85;;;;;;;6.94;83.75;97643.84;5092766;28;20095;-67
2022/12/24 08:35:51;;;;;;;18.27;10.63;;;;;;;7.03;83.55;97651.38;5093203;28;20089;-66
2022/12/24 08:38:17;;;;;;;18.23;9.75;;;;;;;7.08;84.08;97646.69;5092828;28;20028;-67
2022/12/24 08:40:43;;;;;;;18.27;10.95;;;;;;;7.14;83.53;97647.44;5092465;28;20158;-67
2022/12/24 08:43:08;;;;;;;19.35;10.38;;;;;;;7.20;83.74;97657.16;5092999;28;20024;-66
2022/12/24 08:45:35;;;;;;;18.25;10.38;;;;;;;7.23;84.15;97656.59;5074845;28;20077;-66
2022/12/24 08:48:00;;;;;;;17.80;11.25;;;;;;;7.26;83.85;97664.19;5092787;28;20107;-66
2022/12/24 08:50:27;;;;;;;21.02;11.07;;;;;;;7.29;83.48;97666.31;5092533;28;20666;-67
2022/12/24 08:52:52;;;;;;;30.25;14.35;;;;;;;7.34;83.74;97665.44;5092851;28;20537;-67
2022/12/24 08:55:18;;;;;;;34.33;16.75;;;;;;;7.37;83.67;97675.75;5089872;28;20040;-66
2022/12/24 08:57:43;;;;;;;27.27;14.25;;;;;;;7.41;83.62;97676.78;5092511;28;20054;-66
2022/12/24 09:00:11;;;;;;;28.60;14.38;;;;;;;7.45;83.61;97686.00;5092120;28;20161;-67
2022/12/24 09:02:37;;;;;;;37.83;17.20;;;;;;;7.51;83.45;97696.84;5092044;28;20024;-67
2022/12/24 09:05:03;;;;;;;31.50;15.40;;;;;;;7.56;84.36;97688.56;5092219;28;20053;-67
2022/12/24 09:07:28;;;;;;;37.00;17.48;;;;;;;7.60;83.33;97695.06;5092259;28;20051;-67
2022/12/24 09:09:53;;;;;;;27.98;14.95;;;;;;;7.64;83.83;97696.09;5090809;28;20035;-67
2022/12/24 09:12:19;;;;;;;24.20;12.43;;;;;;;7.70;83.78;97696.84;5091444;28;20107;-67
2022/12/24 09:14:44;;;;;;;23.42;12.45;;;;;;;7.75;83.14;97699.47;5091889;28;20032;-68
2022/12/24 09:17:10;;;;;;;24.33;13.25;;;;;;;7.81;83.17;97700.22;5092149;28;20094;-69
2022/12/24 09:19:37;;;;;;;23.30;12.82;;;;;;;7.85;83.49;97706.72;5091533;28;20035;-69
2022/12/24 09:22:02;;;;;;;20.23;11.65;;;;;;;7.88;83.44;97709.66;5091701;28;20036;-66
2022/12/24 09:24:28;;;;;;;21.23;12.48;;;;;;;7.93;83.21;97707.94;5091783;28;20373;-67
2022/12/24 09:26:53;;;;;;;31.27;17.20;;;;;;;7.97;83.55;97715.25;5092238;28;20073;-67
2022/12/24 09:29:18;;;;;;;31.42;17.55;;;;;;;8.01;82.83;97715.47;5092202;28;20103;-68
2022/12/24 09:31:44;;;;;;;33.15;16.30;;;;;;;8.03;83.41;97716.00;5092115;28;20036;-67
2022/12/24 09:34:09;;;;;;;18.15;8.05;;;;;;;8.09;82.98;97716.72;5092548;28;20035;-66
2022/12/24 09:36:34;;;;;;;12.02;5.35;;;;;;;8.15;82.82;97718.25;5089388;28;20024;-67
2022/12/24 09:39:00;;;;;;;45.20;16.95;;;;;;;8.19;82.78;97728.25;5089734;28;20111;-66
2022/12/24 09:41:54;;;;;;;38.63;15.07;;;;;;;8.20;83.39;97729.88;5090244;28;20175;-67
2022/12/24 09:44:47;;;;;;;20.98;9.57;;;;;;;8.24;82.71;97732.84;5091821;28;20169;-68
2022/12/24 09:47:19;;;;;;;36.15;10.85;;;;;;;8.26;82.99;97722.44;5091540;28;20043;-66
2022/12/24 09:49:49;;;;;;;20.85;8.10;;;;;;;8.27;82.59;97726.78;5090777;28;20039;-66
2022/12/24 09:52:37;;;;;;;14.43;5.97;;;;;;;8.29;83.30;97738.25;5091633;28;20046;-67
2022/12/24 09:55:22;;;;;;;24.67;8.73;;;;;;;8.32;82.40;97742.28;5091311;28;20032;-67
2022/12/24 09:57:50;;;;;;;26.08;8.85;;;;;;;8.32;82.78;97747.75;5091106;28;20017;-67
2022/12/24 10:00:27;;;;;;;26.90;7.20;;;;;;;8.32;82.34;97734.09;5090119;28;20468;-67
2022/12/24 10:02:52;;;;;;;28.02;7.68;;;;;;;8.35;82.78;97738.94;5086372;28;20028;-68
2022/12/24 10:05:37;;;;;;;21.25;6.70;;;;;;;8.39;82.22;97748.19;5090394;28;20024;-68
2022/12/24 10:08:40;;;;;;;45.35;13.27;;;;;;;8.44;82.66;97750.00;5085723;28;20480;-68
2022/12/24 10:11:22;;;;;;;95.82;28.98;;;;;;;8.50;82.78;97746.09;5066495;28;20144;-69
2022/12/24 10:14:06;;;;;;;65.30;20.58;;;;;;;8.51;82.53;97753.19;5089311;28;20136;-66
2022/12/24 10:16:47;;;;;;;35.78;10.57;;;;;;;8.54;82.15;97757.25;5089551;28;20536;-65
2022/12/24 10:19:37;;;;;;;33.35;9.50;;;;;;;8.60;82.09;97759.59;5089423;28;20071;-65
2022/12/24 10:22:35;;;;;;;17.48;7.45;;;;;;;8.70;82.48;97774.19;5087206;28;20059;-65
2022/12/24 10:25:00;;;;;;;15.13;6.32;;;;;;;8.75;83.10;97783.09;5087900;28;20028;-65
2022/12/24 10:27:33;;;;;;;14.50;7.25;;;;;;;8.77;81.85;97780.88;5090373;28;20594;-66
2022/12/24 10:30:05;;;;;;;21.25;9.45;;;;;;;8.78;82.53;97785.25;5089906;28;20028;-66
2022/12/24 10:32:33;;;;;;;24.20;9.60;;;;;;;8.79;82.22;97775.94;5094153;28;20020;-66
2022/12/24 10:35:05;;;;;;;15.85;7.82;;;;;;;8.79;82.21;97792.34;5093820;28;20051;-66
2022/12/24 10:37:30;;;;;;;12.65;7.25;;;;;;;8.83;82.73;97797.19;5094173;28;20158;-65
2022/12/24 10:39:58;;;;;;;13.52;6.38;;;;;;;8.82;81.60;97809.25;5092752;28;20123;-65
2022/12/24 10:42:32;;;;;;;12.77;7.20;;;;;;;8.77;81.41;97802.75;5093995;28;20024;-65
2022/12/24 10:45:04;;;;;;;11.32;6.05;;;;;;;8.76;81.52;97797.59;5091227;28;20146;-65
2022/12/24 10:47:37;;;;;;;9.90;6.28;;;;;;;8.79;81.65;97800.53;5093140;28;20566;-66
2022/12/24 10:50:23;;;;;;;9.88;5.07;;;;;;;8.81;81.93;97799.44;5089880;28;20509;-66
2022/12/24 10:52:54;;;;;;;8.07;4.20;;;;;;;8.80;81.52;97804.06;5093373;28;20055;-66
2022/12/24 10:55:27;;;;;;;10.77;4.40;;;;;;;8.76;81.59;97801.13;5091187;28;20107;-66
2022/12/24 10:58:00;;;;;;;9.35;5.25;;;;;;;8.78;81.18;97807.13;5093608;28;20055;-63
2022/12/24 11:00:26;;;;;;;14.07;7.22;;;;;;;8.78;81.23;97814.50;5090301;28;20032;-63
2022/12/24 11:03:29;;;;;;;20.27;9.13;;;;;;;8.80;81.97;97820.47;5093503;28;20388;-63
2022/12/24 11:06:04;;;;;;;18.27;7.95;;;;;;;8.84;81.42;97823.44;5092838;28;20090;-64
2022/12/24 11:08:30;;;;;;;24.63;10.40;;;;;;;8.88;81.33;97819.00;5089221;28;20069;-64
2022/12/24 11:11:02;;;;;;;26.52;11.05;;;;;;;8.91;81.84;97811.00;5092623;28;20032;-64
2022/12/24 11:13:29;;;;;;;41.83;17.80;;;;;;;8.98;81.69;97826.19;5091338;28;20076;-65
2022/12/24 11:16:09;;;;;;;18.63;9.23;;;;;;;9.05;81.63;97832.09;5088637;28;20028;-64
2022/12/24 11:18:43;;;;;;;13.48;7.10;;;;;;;9.10;80.73;97821.06;5091472;28;20855;-64
2022/12/24 11:21:08;;;;;;;12.82;6.75;;;;;;;9.14;80.65;97824.81;5088369;28;20047;-64
2022/12/24 11:23:34;;;;;;;12.93;5.85;;;;;;;9.18;80.85;97827.75;5091298;28;20039;-64
2022/12/24 11:26:00;;;;;;;8.68;4.68;;;;;;;9.24;81.34;97834.75;5091083;28;20058;-64
2022/12/24 11:28:30;;;;;;;7.13;4.57;;;;;;;9.30;80.18;97838.19;5091644;28;20039;-63
2022/12/24 11:31:05;;;;;;;10.73;4.55;;;;;;;9.31;80.08;97846.09;5086988;28;20020;-64
2022/12/24 11:33:31;;;;;;;9.45;5.10;;;;;;;9.32;80.15;97847.72;5091496;28;20031;-64
2022/12/24 11:36:01;;;;;;;10.70;7.10;;;;;;;9.30;80.50;97855.44;5090840;28;20488;-64
2022/12/24 11:38:28;;;;;;;10.13;5.45;;;;;;;9.30;78.88;97862.81;5087276;28;20103;-64
2022/12/24 11:41:06;;;;;;;10.60;5.60;;;;;;;9.28;79.08;97873.25;5090822;28;20080;-65
2022/12/24 11:43:46;;;;;;;10.27;5.32;;;;;;;9.28;79.06;97865.03;5090936;28;20020;-65
2022/12/24 11:46:15;;;;;;;10.00;4.57;;;;;;;9.25;78.48;97871.94;5090940;28;20034;-64
2022/12/24 11:48:41;;;;;;;7.63;3.57;;;;;;;9.23;78.25;97883.16;5089908;28;20032;-64